Auchinleck, United Kingdom
Current Conditions -  °F | °C
As of 1:50 AM on Tuesday 21 Oct 2014 (Local Time) from EGPK Reporting Station
Moderate Rain Moderate Rain  
Wind Chill: 55°   Ceiling: Unl
Heat Index: 55°   Visibility: 5mi
Dew Point: 52°   Wind: 22mph
Humidity: 88%   Direction: 180°S
Pressure: 29.23"   Gusts: NA
Location:  55.47°N, 4.29°W
Report Text: EGPK 210050Z 18019KT 8000 RA FEW017 SCT027 13/11 Q0990
Loading
Personal Weather Stations






























Interactive Weather Map
Tropical Storm Tracking
New forecast layout! Learn more

10-Day Weather Forecast

Advertisements
Track Severe Weather on mobile